sensor_id;sensor_type;location;lat;lon;timestamp;pressure;altitude;pressure_sealevel;temperature;humidity
42431;BME280;71905;47.466;19.024;2024-03-07T00:00:33;100212.81;;;8.77;100.00
42431;BME280;71905;47.466;19.024;2024-03-07T00:03:01;100210.16;;;8.78;100.00
42431;BME280;71905;47.466;19.024;2024-03-07T00:05:30;100216.19;;;8.82;100.00
42431;BME280;71905;47.466;19.024;2024-03-07T00:07:58;100211.06;;;8.76;100.00
42431;BME280;71905;47.466;19.024;2024-03-07T00:10:26;100213.75;;;8.74;100.00
42431;BME280;71905;47.466;19.024;2024-03-07T00:12:54;100218.94;;;8.77;100.00
42431;BME280;71905;47.466;19.024;2024-03-07T00:15:24;100212.72;;;8.80;100.00
42431;BME280;71905;47.466;19.024;2024-03-07T00:17:52;100212.78;;;8.78;100.00
42431;BME280;71905;47.466;19.024;2024-03-07T00:20:20;100214.59;;;8.75;100.00
42431;BME280;71905;47.466;19.024;2024-03-07T00:22:48;100211.00;;;8.79;100.00
42431;BME280;71905;47.466;19.024;2024-03-07T00:25:17;100216.50;;;8.70;100.00
42431;BME280;71905;47.466;19.024;2024-03-07T00:27:47;100205.84;;;8.74;100.00
42431;BME280;71905;47.466;19.024;2024-03-07T00:30:16;100207.63;;;8.74;100.00
42431;BME280;71905;47.466;19.024;2024-03-07T00:32:48;100201.50;;;8.73;100.00
42431;BME280;71905;47.466;19.024;2024-03-07T00:35:16;100200.53;;;8.76;100.00
42431;BME280;71905;47.466;19.024;2024-03-07T00:37:45;100207.56;;;8.75;100.00
42431;BME280;71905;47.466;19.024;2024-03-07T00:40:13;100209.34;;;8.75;100.00
42431;BME280;71905;47.466;19.024;2024-03-07T00:42:42;100209.34;;;8.75;100.00
42431;BME280;71905;47.466;19.024;2024-03-07T00:45:10;100215.56;;;8.72;100.00
42431;BME280;71905;47.466;19.024;2024-03-07T00:47:38;100216.50;;;8.70;100.00
42431;BME280;71905;47.466;19.024;2024-03-07T00:50:09;100212.97;;;8.71;100.00
42431;BME280;71905;47.466;19.024;2024-03-07T00:52:38;100215.75;;;8.66;100.00
42431;BME280;71905;47.466;19.024;2024-03-07T00:55:07;100215.66;;;8.69;100.00
42431;BME280;71905;47.466;19.024;2024-03-07T00:57:36;100218.28;;;8.69;100.00
42431;BME280;71905;47.466;19.024;2024-03-07T01:00:05;100216.59;;;8.67;100.00
42431;BME280;71905;47.466;19.024;2024-03-07T01:02:39;100212.25;;;8.66;100.00
42431;BME280;71905;47.466;19.024;2024-03-07T01:05:11;100209.56;;;8.67;100.00
42431;BME280;71905;47.466;19.024;2024-03-07T01:07:41;100209.63;;;8.66;100.00
42431;BME280;71905;47.466;19.024;2024-03-07T01:10:10;100213.97;;;8.67;100.00
42431;BME280;71905;47.466;19.024;2024-03-07T01:12:38;100215.75;;;8.66;100.00
42431;BME280;71905;47.466;19.024;2024-03-07T01:15:07;100210.53;;;8.63;100.00
42431;BME280;71905;47.466;19.024;2024-03-07T01:17:35;100204.41;;;8.63;100.00
42431;BME280;71905;47.466;19.024;2024-03-07T01:20:04;100201.81;;;8.61;100.00
42431;BME280;71905;47.466;19.024;2024-03-07T01:22:34;100191.22;;;8.64;100.00
42431;BME280;71905;47.466;19.024;2024-03-07T01:25:02;100188.59;;;8.64;100.00
42431;BME280;71905;47.466;19.024;2024-03-07T01:27:31;100184.22;;;8.63;100.00
42431;BME280;71905;47.466;19.024;2024-03-07T01:29:58;100192.16;;;8.62;100.00
42431;BME280;71905;47.466;19.024;2024-03-07T01:32:28;100195.88;;;8.54;100.00
42431;BME280;71905;47.466;19.024;2024-03-07T01:34:57;100194.16;;;8.53;100.00
42431;BME280;71905;47.466;19.024;2024-03-07T01:37:25;100194.09;;;8.55;100.00
42431;BME280;71905;47.466;19.024;2024-03-07T01:39:54;100197.69;;;8.52;100.00
42431;BME280;71905;47.466;19.024;2024-03-07T01:42:22;100199.38;;;8.55;100.00
42431;BME280;71905;47.466;19.024;2024-03-07T01:44:51;100197.69;;;8.52;100.00
42431;BME280;71905;47.466;19.024;2024-03-07T01:47:19;100202.94;;;8.52;100.00
42431;BME280;71905;47.466;19.024;2024-03-07T01:49:48;100194.19;;;8.50;100.00
42431;BME280;71905;47.466;19.024;2024-03-07T01:52:17;100196.81;;;8.52;100.00
42431;BME280;71905;47.466;19.024;2024-03-07T01:54:46;100193.38;;;8.48;100.00
42431;BME280;71905;47.466;19.024;2024-03-07T01:57:16;100194.28;;;8.47;100.00
42431;BME280;71905;47.466;19.024;2024-03-07T01:59:47;100193.47;;;8.45;100.00
42431;BME280;71905;47.466;19.024;2024-03-07T02:02:17;100188.22;;;8.45;100.00
42431;BME280;71905;47.466;19.024;2024-03-07T02:04:45;100197.84;;;8.46;100.00
42431;BME280;71905;47.466;19.024;2024-03-07T02:07:13;100192.47;;;8.49;100.00
42431;BME280;71905;47.466;19.024;2024-03-07T02:09:41;100204.03;;;8.44;100.00
42431;BME280;71905;47.466;19.024;2024-03-07T02:12:09;100194.66;;;8.32;100.00
42431;BME280;71905;47.466;19.024;2024-03-07T02:14:39;100188.25;;;8.44;100.00
42431;BME280;71905;47.466;19.024;2024-03-07T02:17:07;100189.31;;;8.37;100.00
42431;BME280;71905;47.466;19.024;2024-03-07T02:19:35;100190.97;;;8.41;100.00
42431;BME280;71905;47.466;19.024;2024-03-07T02:22:04;100182.38;;;8.34;100.00
42431;BME280;71905;47.466;19.024;2024-03-07T02:24:33;100188.50;;;8.35;100.00
42431;BME280;71905;47.466;19.024;2024-03-07T02:27:01;100183.22;;;8.33;100.00
42431;BME280;71905;47.466;19.024;2024-03-07T02:29:29;100185.81;;;8.36;100.00
42431;BME280;71905;47.466;19.024;2024-03-07T02:31:57;100190.34;;;8.30;100.00
42431;BME280;71905;47.466;19.024;2024-03-07T02:34:25;100179.00;;;8.27;100.00
42431;BME280;71905;47.466;19.024;2024-03-07T02:36:53;100185.19;;;8.25;100.00
42431;BME280;71905;47.466;19.024;2024-03-07T02:39:23;100188.63;;;8.29;100.00
42431;BME280;71905;47.466;19.024;2024-03-07T02:41:52;100183.41;;;8.25;100.00
42431;BME280;71905;47.466;19.024;2024-03-07T02:44:20;100191.31;;;8.25;100.00
42431;BME280;71905;47.466;19.024;2024-03-07T02:46:48;100185.22;;;8.23;100.00
42431;BME280;71905;47.466;19.024;2024-03-07T02:49:16;100185.41;;;8.17;100.00
42431;BME280;71905;47.466;19.024;2024-03-07T02:51:45;100189.03;;;8.13;100.00
42431;BME280;71905;47.466;19.024;2024-03-07T02:54:13;100188.91;;;8.18;100.00
42431;BME280;71905;47.466;19.024;2024-03-07T02:56:42;100190.75;;;8.14;100.00
42431;BME280;71905;47.466;19.024;2024-03-07T02:59:10;100187.09;;;8.20;100.00
42431;BME280;71905;47.466;19.024;2024-03-07T03:01:38;100188.94;;;8.16;100.00
42431;BME280;71905;47.466;19.024;2024-03-07T03:04:06;100184.63;;;8.14;100.00
42431;BME280;71905;47.466;19.024;2024-03-07T03:06:34;100192.69;;;8.06;100.00
42431;BME280;71905;47.466;19.024;2024-03-07T03:09:02;100183.13;;;8.04;100.00
42431;BME280;71905;47.466;19.024;2024-03-07T03:11:31;100184.94;;;8.02;100.00
42431;BME280;71905;47.466;19.024;2024-03-07T03:14:01;100191.09;;;7.99;100.00
42431;BME280;71905;47.466;19.024;2024-03-07T03:16:30;100198.19;;;7.97;100.00
42431;BME280;71905;47.466;19.024;2024-03-07T03:19:13;100189.50;;;7.93;100.00
42431;BME280;71905;47.466;19.024;2024-03-07T03:21:42;100180.63;;;7.97;100.00
42431;BME280;71905;47.466;19.024;2024-03-07T03:24:10;100185.97;;;7.94;100.00
42431;BME280;71905;47.466;19.024;2024-03-07T03:26:38;100185.97;;;7.94;100.00
42431;BME280;71905;47.466;19.024;2024-03-07T03:29:10;100184.31;;;7.90;100.00
42431;BME280;71905;47.466;19.024;2024-03-07T03:31:40;100187.03;;;7.86;100.00
42431;BME280;71905;47.466;19.024;2024-03-07T03:34:08;100178.25;;;7.88;100.00
42431;BME280;71905;47.466;19.024;2024-03-07T03:36:37;100181.94;;;7.80;100.00
42431;BME280;71905;47.466;19.024;2024-03-07T03:39:05;100181.94;;;7.80;100.00
42431;BME280;71905;47.466;19.024;2024-03-07T03:41:34;100186.31;;;7.81;100.00
42431;BME280;71905;47.466;19.024;2024-03-07T03:44:02;100189.97;;;7.75;100.00
42431;BME280;71905;47.466;19.024;2024-03-07T03:46:31;100189.06;;;7.76;100.00
42431;BME280;71905;47.466;19.024;2024-03-07T03:49:00;100183.63;;;7.82;100.00
42431;BME280;71905;47.466;19.024;2024-03-07T03:51:28;100180.25;;;7.77;100.00
42431;BME280;71905;47.466;19.024;2024-03-07T03:53:56;100179.31;;;7.80;100.00
42431;BME280;71905;47.466;19.024;2024-03-07T03:56:24;100190.53;;;7.86;100.00
42431;BME280;71905;47.466;19.024;2024-03-07T03:58:53;100183.72;;;7.79;100.00
42431;BME280;71905;47.466;19.024;2024-03-07T04:01:21;100190.78;;;7.77;100.00
42431;BME280;71905;47.466;19.024;2024-03-07T04:03:51;100196.94;;;7.75;100.00
42431;BME280;71905;47.466;19.024;2024-03-07T04:06:19;100197.97;;;7.69;100.00
42431;BME280;71905;47.466;19.024;2024-03-07T04:08:48;100195.22;;;7.74;100.00
42431;BME280;71905;47.466;19.024;2024-03-07T04:11:16;100194.47;;;7.68;100.00
42431;BME280;71905;47.466;19.024;2024-03-07T04:13:45;100187.38;;;7.72;100.00
42431;BME280;71905;47.466;19.024;2024-03-07T04:16:14;100186.69;;;7.65;100.00
42431;BME280;71905;47.466;19.024;2024-03-07T04:18:42;100193.66;;;7.66;100.00
42431;BME280;71905;47.466;19.024;2024-03-07T04:21:11;100196.44;;;7.59;100.00
42431;BME280;71905;47.466;19.024;2024-03-07T04:23:40;100195.50;;;7.63;100.00
42431;BME280;71905;47.466;19.024;2024-03-07T04:26:08;100198.25;;;7.57;100.00
42431;BME280;71905;47.466;19.024;2024-03-07T04:28:36;100198.22;;;7.58;100.00
42431;BME280;71905;47.466;19.024;2024-03-07T04:31:04;100210.56;;;7.55;100.00
42431;BME280;71905;47.466;19.024;2024-03-07T04:33:32;100208.91;;;7.51;100.00
42431;BME280;71905;47.466;19.024;2024-03-07T04:36:00;100216.03;;;7.46;100.00
42431;BME280;71905;47.466;19.024;2024-03-07T04:38:31;100212.50;;;7.47;100.00
42431;BME280;71905;47.466;19.024;2024-03-07T04:40:59;100210.69;;;7.49;100.00
42431;BME280;71905;47.466;19.024;2024-03-07T04:43:27;100209.06;;;7.43;100.00
42431;BME280;71905;47.466;19.024;2024-03-07T04:45:55;100212.59;;;7.42;100.00
42431;BME280;71905;47.466;19.024;2024-03-07T04:48:23;100211.78;;;7.40;100.00
42431;BME280;71905;47.466;19.024;2024-03-07T04:50:51;100217.16;;;7.34;100.00
42431;BME280;71905;47.466;19.024;2024-03-07T04:53:19;100219.88;;;7.29;100.00
42431;BME280;71905;47.466;19.024;2024-03-07T04:55:49;100227.81;;;7.28;100.00
42431;BME280;71905;47.466;19.024;2024-03-07T04:58:17;100220.91;;;7.22;100.00
42431;BME280;71905;47.466;19.024;2024-03-07T05:00:45;100227.94;;;7.20;100.00
42431;BME280;71905;47.466;19.024;2024-03-07T05:03:13;100225.34;;;7.19;100.00
42431;BME280;71905;47.466;19.024;2024-03-07T05:05:41;100230.63;;;7.19;100.00
42431;BME280;71905;47.466;19.024;2024-03-07T05:08:09;100229.75;;;7.18;100.00
42431;BME280;71905;47.466;19.024;2024-03-07T05:10:38;100225.47;;;7.14;100.00
42431;BME280;71905;47.466;19.024;2024-03-07T05:13:09;100222.00;;;7.12;100.00
42431;BME280;71905;47.466;19.024;2024-03-07T05:15:37;100234.25;;;7.13;100.00
42431;BME280;71905;47.466;19.024;2024-03-07T05:18:06;100223.78;;;7.12;100.00
42431;BME280;71905;47.466;19.024;2024-03-07T05:20:35;100235.16;;;7.12;100.00
42431;BME280;71905;47.466;19.024;2024-03-07T05:23:03;100235.16;;;7.12;100.00
42431;BME280;71905;47.466;19.024;2024-03-07T05:25:32;100232.44;;;7.15;100.00
42431;BME280;71905;47.466;19.024;2024-03-07T05:28:00;100237.72;;;7.14;100.00
42431;BME280;71905;47.466;19.024;2024-03-07T05:30:30;100236.00;;;7.11;100.00
42431;BME280;71905;47.466;19.024;2024-03-07T05:32:59;100229.91;;;7.11;100.00
42431;BME280;71905;47.466;19.024;2024-03-07T05:35:29;100236.88;;;7.13;100.00
42431;BME280;71905;47.466;19.024;2024-03-07T05:37:57;100241.22;;;7.14;100.00
42431;BME280;71905;47.466;19.024;2024-03-07T05:40:28;100240.19;;;7.21;100.00
42431;BME280;71905;47.466;19.024;2024-03-07T05:42:56;100237.56;;;7.21;100.00
42431;BME280;71905;47.466;19.024;2024-03-07T05:45:24;100241.94;;;7.21;100.00
42431;BME280;71905;47.466;19.024;2024-03-07T05:47:53;100250.53;;;7.29;100.00
42431;BME280;71905;47.466;19.024;2024-03-07T05:50:21;100251.28;;;7.35;100.00
42431;BME280;71905;47.466;19.024;2024-03-07T05:52:49;100253.78;;;7.42;100.00
42431;BME280;71905;47.466;19.024;2024-03-07T05:55:17;100250.16;;;7.47;100.00
42431;BME280;71905;47.466;19.024;2024-03-07T05:57:48;100254.53;;;7.47;100.00
42431;BME280;71905;47.466;19.024;2024-03-07T06:00:16;100260.75;;;7.43;100.00
42431;BME280;71905;47.466;19.024;2024-03-07T06:02:56;100252.75;;;7.49;100.00
42431;BME280;71905;47.466;19.024;2024-03-07T06:05:24;100260.50;;;7.55;100.00
42431;BME280;71905;47.466;19.024;2024-03-07T06:07:53;100271.00;;;7.55;100.00
42431;BME280;71905;47.466;19.024;2024-03-07T06:10:21;100267.56;;;7.53;100.00
42431;BME280;71905;47.466;19.024;2024-03-07T06:12:51;100269.22;;;7.57;100.00
42431;BME280;71905;47.466;19.024;2024-03-07T06:15:36;100260.44;;;7.58;100.00
42431;BME280;71905;47.466;19.024;2024-03-07T06:18:06;100262.03;;;7.65;100.00
42431;BME280;71905;47.466;19.024;2024-03-07T06:20:38;100263.81;;;7.64;100.00
42431;BME280;71905;47.466;19.024;2024-03-07T06:23:08;100262.13;;;7.60;100.00
42431;BME280;71905;47.466;19.024;2024-03-07T06:25:37;100267.41;;;7.59;100.00
42431;BME280;71905;47.466;19.024;2024-03-07T06:28:15;100274.34;;;7.63;100.00
42431;BME280;71905;47.466;19.024;2024-03-07T06:30:45;100265.59;;;7.62;100.00
42431;BME280;71905;47.466;19.024;2024-03-07T06:33:15;100271.72;;;7.63;100.00
42431;BME280;71905;47.466;19.024;2024-03-07T06:35:47;100276.09;;;7.64;100.00
42431;BME280;71905;47.466;19.024;2024-03-07T06:38:16;100272.31;;;7.74;100.00
42431;BME280;71905;47.466;19.024;2024-03-07T06:40:44;100281.19;;;7.70;100.00
42431;BME280;71905;47.466;19.024;2024-03-07T06:43:12;100277.53;;;7.77;100.00
42431;BME280;71905;47.466;19.024;2024-03-07T06:45:41;100284.59;;;7.75;100.00
42431;BME280;71905;47.466;19.024;2024-03-07T06:48:09;100291.66;;;7.72;100.00
42431;BME280;71905;47.466;19.024;2024-03-07T06:50:39;100272.38;;;7.73;100.00
42431;BME280;71905;47.466;19.024;2024-03-07T06:53:07;100288.09;;;7.74;100.00
42431;BME280;71905;47.466;19.024;2024-03-07T06:55:36;100291.63;;;7.73;100.00
42431;BME280;71905;47.466;19.024;2024-03-07T06:58:05;100292.53;;;7.72;100.00
42431;BME280;71905;47.466;19.024;2024-03-07T07:00:33;100288.25;;;7.68;100.00
42431;BME280;71905;47.466;19.024;2024-03-07T07:03:04;100285.69;;;7.65;100.00
42431;BME280;71905;47.466;19.024;2024-03-07T07:05:33;100298.06;;;7.60;100.00
42431;BME280;71905;47.466;19.024;2024-03-07T07:08:04;100295.19;;;7.71;100.00
42431;BME280;71905;47.466;19.024;2024-03-07T07:10:34;100298.00;;;7.63;100.00
42431;BME280;71905;47.466;19.024;2024-03-07T07:13:03;100298.84;;;7.65;100.00
42431;BME280;71905;47.466;19.024;2024-03-07T07:15:31;100297.88;;;7.69;100.00
42431;BME280;71905;47.466;19.024;2024-03-07T07:18:00;100298.78;;;7.68;100.00
42431;BME280;71905;47.466;19.024;2024-03-07T07:20:29;100305.78;;;7.67;100.00
42431;BME280;71905;47.466;19.024;2024-03-07T07:22:57;100302.16;;;7.73;100.00
42431;BME280;71905;47.466;19.024;2024-03-07T07:25:29;100299.47;;;7.76;100.00
42431;BME280;71905;47.466;19.024;2024-03-07T07:27:57;100304.06;;;7.66;100.00
42431;BME280;71905;47.466;19.024;2024-03-07T07:30:25;100304.00;;;7.70;100.00
42431;BME280;71905;47.466;19.024;2024-03-07T07:32:53;100305.78;;;7.67;100.00
42431;BME280;71905;47.466;19.024;2024-03-07T07:35:22;100303.88;;;7.74;100.00
42431;BME280;71905;47.466;19.024;2024-03-07T07:37:51;100301.31;;;7.71;100.00
42431;BME280;71905;47.466;19.024;2024-03-07T07:40:21;100310.81;;;7.78;100.00
42431;BME280;71905;47.466;19.024;2024-03-07T07:42:52;100311.72;;;7.77;100.00
42431;BME280;71905;47.466;19.024;2024-03-07T07:45:22;100313.53;;;7.74;100.00
42431;BME280;71905;47.466;19.024;2024-03-07T07:47:51;100321.38;;;7.77;100.00
42431;BME280;71905;47.466;19.024;2024-03-07T07:50:21;100317.03;;;7.74;100.00
42431;BME280;71905;47.466;19.024;2024-03-07T07:52:51;100312.66;;;7.73;100.00
42431;BME280;71905;47.466;19.024;2024-03-07T07:55:21;100312.84;;;7.65;100.00
42431;BME280;71905;47.466;19.024;2024-03-07T07:57:51;100320.59;;;7.72;100.00
42431;BME280;71905;47.466;19.024;2024-03-07T08:00:24;100318.03;;;7.68;100.00
42431;BME280;71905;47.466;19.024;2024-03-07T08:02:57;100318.97;;;7.66;100.00
42431;BME280;71905;47.466;19.024;2024-03-07T08:05:27;100320.72;;;7.65;100.00
42431;BME280;71905;47.466;19.024;2024-03-07T08:07:57;100319.84;;;7.66;100.00
42431;BME280;71905;47.466;19.024;2024-03-07T08:10:26;100331.09;;;7.72;100.00
42431;BME280;71905;47.466;19.024;2024-03-07T08:12:58;100331.22;;;7.67;100.00
42431;BME280;71905;47.466;19.024;2024-03-07T08:15:27;100333.13;;;7.59;100.00
42431;BME280;71905;47.466;19.024;2024-03-07T08:17:56;100327.72;;;7.66;100.00
42431;BME280;71905;47.466;19.024;2024-03-07T08:20:26;100337.25;;;7.71;100.00
42431;BME280;71905;47.466;19.024;2024-03-07T08:22:56;100342.16;;;7.87;100.00
42431;BME280;71905;47.466;19.024;2024-03-07T08:25:25;100337.94;;;7.80;100.00
42431;BME280;71905;47.466;19.024;2024-03-07T08:27:54;100338.00;;;7.77;100.00
42431;BME280;71905;47.466;19.024;2024-03-07T08:30:26;100340.56;;;7.80;100.00
42431;BME280;71905;47.466;19.024;2024-03-07T08:32:57;100341.50;;;7.78;100.00
42431;BME280;71905;47.466;19.024;2024-03-07T08:35:26;100350.13;;;7.84;100.00
42431;BME280;71905;47.466;19.024;2024-03-07T08:37:56;100344.00;;;7.84;100.00
42431;BME280;71905;47.466;19.024;2024-03-07T08:40:26;100352.41;;;8.00;100.00
42431;BME280;71905;47.466;19.024;2024-03-07T08:42:58;100343.00;;;7.89;100.00
42431;BME280;71905;47.466;19.024;2024-03-07T08:45:29;100352.75;;;7.84;100.00
42431;BME280;71905;47.466;19.024;2024-03-07T08:48:01;100355.41;;;7.83;100.00
42431;BME280;71905;47.466;19.024;2024-03-07T08:50:32;100360.81;;;7.77;100.00
42431;BME280;71905;47.466;19.024;2024-03-07T08:53:01;100360.81;;;7.77;100.00
42431;BME280;71905;47.466;19.024;2024-03-07T08:55:31;100357.34;;;7.73;100.00
42431;BME280;71905;47.466;19.024;2024-03-07T08:57:59;100353.69;;;7.82;100.00
42431;BME280;71905;47.466;19.024;2024-03-07T09:00:28;100365.13;;;7.79;100.00
42431;BME280;71905;47.466;19.024;2024-03-07T09:02:57;100359.69;;;7.87;100.00
42431;BME280;71905;47.466;19.024;2024-03-07T09:05:29;100356.19;;;7.86;100.00
42431;BME280;71905;47.466;19.024;2024-03-07T09:08:01;100357.88;;;7.90;100.00
42431;BME280;71905;47.466;19.024;2024-03-07T09:10:30;100359.66;;;7.90;100.00
42431;BME280;71905;47.466;19.024;2024-03-07T09:12:58;100364.94;;;7.88;100.00
42431;BME280;71905;47.466;19.024;2024-03-07T09:15:26;100369.19;;;7.94;100.00
42431;BME280;71905;47.466;19.024;2024-03-07T09:17:56;100372.47;;;8.05;100.00
42431;BME280;71905;47.466;19.024;2024-03-07T09:20:25;100374.34;;;7.98;100.00
42431;BME280;71905;47.466;19.024;2024-03-07T09:22:53;100369.09;;;7.98;100.00
42431;BME280;71905;47.466;19.024;2024-03-07T09:25:22;100368.03;;;8.07;100.00
42431;BME280;71905;47.466;19.024;2024-03-07T09:27:52;100376.91;;;8.03;100.00
42431;BME280;71905;47.466;19.024;2024-03-07T09:30:22;100373.31;;;8.06;100.00
42431;BME280;71905;47.466;19.024;2024-03-07T09:32:53;100373.31;;;8.06;100.00
42431;BME280;71905;47.466;19.024;2024-03-07T09:35:24;100367.34;;;7.97;100.00
42431;BME280;71905;47.466;19.024;2024-03-07T09:37:52;100376.91;;;8.03;100.00
42431;BME280;71905;47.466;19.024;2024-03-07T09:40:22;100379.50;;;8.05;100.00
42431;BME280;71905;47.466;19.024;2024-03-07T09:42:54;100378.63;;;8.04;100.00
42431;BME280;71905;47.466;19.024;2024-03-07T09:45:29;100377.56;;;8.11;100.00
42431;BME280;71905;47.466;19.024;2024-03-07T09:47:57;100383.53;;;8.19;100.00
42431;BME280;71905;47.466;19.024;2024-03-07T09:50:29;100387.94;;;8.19;100.00
42431;BME280;71905;47.466;19.024;2024-03-07T09:52:58;100375.81;;;8.12;100.00
42431;BME280;71905;47.466;19.024;2024-03-07T09:55:27;100380.91;;;8.19;100.00
42431;BME280;71905;47.466;19.024;2024-03-07T09:57:58;100381.69;;;8.23;100.00
42431;BME280;71905;47.466;19.024;2024-03-07T10:00:28;100377.41;;;8.19;100.00
42431;BME280;71905;47.466;19.024;2024-03-07T10:02:59;100372.19;;;8.17;100.00
42431;BME280;71905;47.466;19.024;2024-03-07T10:05:31;100376.41;;;8.24;100.00
42431;BME280;71905;47.466;19.024;2024-03-07T10:08:00;100377.56;;;8.11;100.00
42431;BME280;71905;47.466;19.024;2024-03-07T10:10:29;100370.63;;;8.09;100.00
42431;BME280;71905;47.466;19.024;2024-03-07T10:12:58;100382.72;;;8.17;100.00
42431;BME280;71905;47.466;19.024;2024-03-07T10:15:30;100383.69;;;8.13;100.00
42431;BME280;71905;47.466;19.024;2024-03-07T10:17:59;100376.00;;;8.04;100.00
42431;BME280;71905;47.466;19.024;2024-03-07T10:20:28;100382.88;;;8.10;100.00
42431;BME280;71905;47.466;19.024;2024-03-07T10:22:58;100392.59;;;8.06;100.00
42431;BME280;71905;47.466;19.024;2024-03-07T10:25:27;100389.81;;;8.12;100.00
42431;BME280;71905;47.466;19.024;2024-03-07T10:27:56;100395.09;;;8.14;100.00
42431;BME280;71905;47.466;19.024;2024-03-07T10:30:26;100393.19;;;8.19;100.00
42431;BME280;71905;47.466;19.024;2024-03-07T10:32:56;100392.38;;;8.17;100.00
42431;BME280;71905;47.466;19.024;2024-03-07T10:35:27;100394.84;;;8.23;100.00
42431;BME280;71905;47.466;19.024;2024-03-07T10:37:58;100395.03;;;8.15;100.00
42431;BME280;71905;47.466;19.024;2024-03-07T10:40:28;100401.13;;;8.17;100.00
42431;BME280;71905;47.466;19.024;2024-03-07T10:42:58;100402.81;;;8.20;100.00
42431;BME280;71905;47.466;19.024;2024-03-07T10:45:30;100399.31;;;8.19;100.00
42431;BME280;71905;47.466;19.024;2024-03-07T10:48:03;100400.34;;;8.14;100.00
42431;BME280;71905;47.466;19.024;2024-03-07T10:50:43;100402.00;;;8.18;100.00
42431;BME280;71905;47.466;19.024;2024-03-07T10:53:24;100400.34;;;8.14;100.00
42431;BME280;71905;47.466;19.024;2024-03-07T10:56:18;100403.75;;;8.17;100.00
42431;BME280;71905;47.466;19.024;2024-03-07T10:58:57;100400.00;;;8.29;100.00
42431;BME280;71905;47.466;19.024;2024-03-07T11:01:30;100401.94;;;8.21;100.00
42431;BME280;71905;47.466;19.024;2024-03-07T11:04:00;100402.06;;;8.15;100.00
42431;BME280;71905;47.466;19.024;2024-03-07T11:06:32;100404.75;;;8.12;100.00
42431;BME280;71905;47.466;19.024;2024-03-07T11:09:05;100402.22;;;8.07;100.00
42431;BME280;71905;47.466;19.024;2024-03-07T11:11:38;100399.53;;;8.10;100.00
42431;BME280;71905;47.466;19.024;2024-03-07T11:14:08;100396.78;;;8.16;100.00
42431;BME280;71905;47.466;19.024;2024-03-07T11:16:39;100404.50;;;8.22;100.00
42431;BME280;71905;47.466;19.024;2024-03-07T11:19:24;100402.97;;;8.12;100.00
42431;BME280;71905;47.466;19.024;2024-03-07T11:21:55;100399.47;;;8.12;100.00
42431;BME280;71905;47.466;19.024;2024-03-07T11:24:25;100396.94;;;8.09;100.00
42431;BME280;71905;47.466;19.024;2024-03-07T11:26:56;100388.97;;;8.13;100.00
42431;BME280;71905;47.466;19.024;2024-03-07T11:29:47;100388.97;;;8.13;100.00
42431;BME280;71905;47.466;19.024;2024-03-07T11:32:20;100390.88;;;8.05;100.00
42431;BME280;71905;47.466;19.024;2024-03-07T11:34:53;100389.88;;;8.11;100.00
42431;BME280;71905;47.466;19.024;2024-03-07T11:37:39;100390.56;;;8.19;100.00
42431;BME280;71905;47.466;19.024;2024-03-07T11:40:12;100398.59;;;8.13;100.00
42431;BME280;71905;47.466;19.024;2024-03-07T11:42:47;100385.22;;;8.22;100.00
42431;BME280;71905;47.466;19.024;2024-03-07T11:45:17;100391.44;;;8.19;100.00
42431;BME280;71905;47.466;19.024;2024-03-07T11:47:52;100387.78;;;8.25;100.00
42431;BME280;71905;47.466;19.024;2024-03-07T11:50:27;100388.66;;;8.25;100.00
42431;BME280;71905;47.466;19.024;2024-03-07T11:52:56;100388.66;;;8.25;100.00
42431;BME280;71905;47.466;19.024;2024-03-07T11:55:25;100385.78;;;8.38;100.00
42431;BME280;71905;47.466;19.024;2024-03-07T11:57:55;100390.13;;;8.40;100.00
42431;BME280;71905;47.466;19.024;2024-03-07T12:00:23;100386.63;;;8.40;100.00
42431;BME280;71905;47.466;19.024;2024-03-07T12:03:01;100385.81;;;8.36;100.00
42431;BME280;71905;47.466;19.024;2024-03-07T12:05:32;100388.31;;;8.42;100.00
42431;BME280;71905;47.466;19.024;2024-03-07T12:08:01;100382.94;;;8.47;100.00
42431;BME280;71905;47.466;19.024;2024-03-07T12:10:33;100386.41;;;8.49;100.00
42431;BME280;71905;47.466;19.024;2024-03-07T12:13:03;100387.13;;;8.55;100.00
42431;BME280;71905;47.466;19.024;2024-03-07T12:15:31;100381.00;;;8.55;100.00
42431;BME280;71905;47.466;19.024;2024-03-07T12:18:01;100386.28;;;8.55;100.00
42431;BME280;71905;47.466;19.024;2024-03-07T12:20:30;100379.19;;;8.57;100.00
42431;BME280;71905;47.466;19.024;2024-03-07T12:23:01;100383.50;;;8.60;100.00
42431;BME280;71905;47.466;19.024;2024-03-07T12:25:30;100384.34;;;8.62;100.00
42431;BME280;71905;47.466;19.024;2024-03-07T12:28:04;100377.22;;;8.67;100.00
42431;BME280;71905;47.466;19.024;2024-03-07T12:30:34;100378.22;;;8.61;100.00
42431;BME280;71905;47.466;19.024;2024-03-07T12:33:04;100388.13;;;8.51;100.00
42431;BME280;71905;47.466;19.024;2024-03-07T12:35:34;100389.91;;;8.49;100.00
42431;BME280;71905;47.466;19.024;2024-03-07T12:38:03;100386.41;;;8.49;100.00
42431;BME280;71905;47.466;19.024;2024-03-07T12:40:31;100387.41;;;8.43;100.00
42431;BME280;71905;47.466;19.024;2024-03-07T12:43:12;100384.72;;;8.46;100.00
42431;BME280;71905;47.466;19.024;2024-03-07T12:45:43;100385.50;;;8.50;100.00
42431;BME280;71905;47.466;19.024;2024-03-07T12:48:11;100388.06;;;8.53;100.00
42431;BME280;71905;47.466;19.024;2024-03-07T12:50:41;100388.13;;;8.50;100.00
42431;BME280;71905;47.466;19.024;2024-03-07T12:53:09;100386.19;;;8.58;100.00